sensor_id;sensor_type;location;lat;lon;timestamp;temperature;humidity
14172;DHT22;7165;52.388;4.928;2023-05-07T00:02:04;15.00;99.90
14172;DHT22;7165;52.388;4.928;2023-05-07T00:04:31;15.00;99.90
14172;DHT22;7165;52.388;4.928;2023-05-07T00:07:01;15.00;99.90
14172;DHT22;7165;52.388;4.928;2023-05-07T00:09:28;15.00;99.90
14172;DHT22;7165;52.388;4.928;2023-05-07T00:11:55;15.00;99.90
14172;DHT22;7165;52.388;4.928;2023-05-07T00:14:21;15.00;99.90
14172;DHT22;7165;52.388;4.928;2023-05-07T00:16:49;15.00;99.90
14172;DHT22;7165;52.388;4.928;2023-05-07T00:19:15;15.00;99.90
14172;DHT22;7165;52.388;4.928;2023-05-07T00:21:42;15.00;99.90
14172;DHT22;7165;52.388;4.928;2023-05-07T00:24:08;14.90;99.90
14172;DHT22;7165;52.388;4.928;2023-05-07T00:26:35;14.90;99.90
14172;DHT22;7165;52.388;4.928;2023-05-07T00:29:01;14.90;99.90
14172;DHT22;7165;52.388;4.928;2023-05-07T00:31:28;14.80;99.90
14172;DHT22;7165;52.388;4.928;2023-05-07T00:33:56;14.80;99.90
14172;DHT22;7165;52.388;4.928;2023-05-07T00:36:22;14.80;99.90
14172;DHT22;7165;52.388;4.928;2023-05-07T00:38:49;14.70;99.90
14172;DHT22;7165;52.388;4.928;2023-05-07T00:41:15;14.70;99.90
14172;DHT22;7165;52.388;4.928;2023-05-07T00:43:43;14.60;99.90
14172;DHT22;7165;52.388;4.928;2023-05-07T00:46:09;14.60;99.90
14172;DHT22;7165;52.388;4.928;2023-05-07T00:48:36;14.60;99.90
14172;DHT22;7165;52.388;4.928;2023-05-07T00:51:04;14.60;99.90
14172;DHT22;7165;52.388;4.928;2023-05-07T00:53:31;14.60;99.90
14172;DHT22;7165;52.388;4.928;2023-05-07T00:55:57;14.60;99.90
14172;DHT22;7165;52.388;4.928;2023-05-07T00:58:26;14.60;99.90
14172;DHT22;7165;52.388;4.928;2023-05-07T01:00:52;14.60;99.90
14172;DHT22;7165;52.388;4.928;2023-05-07T01:03:19;14.60;99.90
14172;DHT22;7165;52.388;4.928;2023-05-07T01:05:46;14.60;99.90
14172;DHT22;7165;52.388;4.928;2023-05-07T01:08:15;14.60;99.90
14172;DHT22;7165;52.388;4.928;2023-05-07T01:10:43;14.60;99.90
14172;DHT22;7165;52.388;4.928;2023-05-07T01:13:10;14.60;99.90
14172;DHT22;7165;52.388;4.928;2023-05-07T01:15:37;14.60;99.90
14172;DHT22;7165;52.388;4.928;2023-05-07T01:18:03;14.60;99.90
14172;DHT22;7165;52.388;4.928;2023-05-07T01:20:32;14.70;99.90
14172;DHT22;7165;52.388;4.928;2023-05-07T01:23:00;14.70;99.90
14172;DHT22;7165;52.388;4.928;2023-05-07T01:25:26;14.70;99.90
14172;DHT22;7165;52.388;4.928;2023-05-07T01:27:53;14.70;99.90
14172;DHT22;7165;52.388;4.928;2023-05-07T01:30:20;14.70;99.90
14172;DHT22;7165;52.388;4.928;2023-05-07T01:32:48;14.70;99.90
14172;DHT22;7165;52.388;4.928;2023-05-07T01:35:16;14.70;99.90
14172;DHT22;7165;52.388;4.928;2023-05-07T01:37:44;14.70;99.90
14172;DHT22;7165;52.388;4.928;2023-05-07T01:40:13;14.70;99.90
14172;DHT22;7165;52.388;4.928;2023-05-07T01:42:40;14.70;99.90
14172;DHT22;7165;52.388;4.928;2023-05-07T01:45:08;14.70;99.90
14172;DHT22;7165;52.388;4.928;2023-05-07T01:47:34;14.70;99.90
14172;DHT22;7165;52.388;4.928;2023-05-07T01:50:02;14.70;99.90
14172;DHT22;7165;52.388;4.928;2023-05-07T01:52:29;14.70;99.90
14172;DHT22;7165;52.388;4.928;2023-05-07T01:54:56;14.70;99.90
14172;DHT22;7165;52.388;4.928;2023-05-07T01:57:24;14.70;99.90
14172;DHT22;7165;52.388;4.928;2023-05-07T01:59:50;14.70;99.90
14172;DHT22;7165;52.388;4.928;2023-05-07T02:02:17;14.70;99.90
14172;DHT22;7165;52.388;4.928;2023-05-07T02:04:43;14.70;99.90
14172;DHT22;7165;52.388;4.928;2023-05-07T02:07:10;14.70;99.90
14172;DHT22;7165;52.388;4.928;2023-05-07T02:09:37;14.70;99.90
14172;DHT22;7165;52.388;4.928;2023-05-07T02:12:03;14.70;99.90
14172;DHT22;7165;52.388;4.928;2023-05-07T02:14:31;14.70;99.90
14172;DHT22;7165;52.388;4.928;2023-05-07T02:16:58;14.70;99.90
14172;DHT22;7165;52.388;4.928;2023-05-07T02:19:25;14.70;99.90
14172;DHT22;7165;52.388;4.928;2023-05-07T02:21:51;14.70;99.90
14172;DHT22;7165;52.388;4.928;2023-05-07T02:24:18;14.70;99.90
14172;DHT22;7165;52.388;4.928;2023-05-07T02:26:44;14.70;99.90
14172;DHT22;7165;52.388;4.928;2023-05-07T02:29:11;14.80;99.90
14172;DHT22;7165;52.388;4.928;2023-05-07T02:31:39;14.80;99.90
14172;DHT22;7165;52.388;4.928;2023-05-07T02:34:05;14.80;99.90
14172;DHT22;7165;52.388;4.928;2023-05-07T02:36:32;14.80;99.90
14172;DHT22;7165;52.388;4.928;2023-05-07T02:38:58;14.80;99.90
14172;DHT22;7165;52.388;4.928;2023-05-07T02:41:25;14.80;99.90
14172;DHT22;7165;52.388;4.928;2023-05-07T02:43:53;14.80;99.90
14172;DHT22;7165;52.388;4.928;2023-05-07T02:46:19;14.80;99.90
14172;DHT22;7165;52.388;4.928;2023-05-07T02:48:47;14.80;99.90
14172;DHT22;7165;52.388;4.928;2023-05-07T02:51:14;14.80;99.90
14172;DHT22;7165;52.388;4.928;2023-05-07T02:53:40;14.80;99.90
14172;DHT22;7165;52.388;4.928;2023-05-07T02:56:07;14.80;99.90
14172;DHT22;7165;52.388;4.928;2023-05-07T02:58:33;14.80;99.90
14172;DHT22;7165;52.388;4.928;2023-05-07T03:01:00;14.80;99.90
14172;DHT22;7165;52.388;4.928;2023-05-07T03:03:26;14.80;99.90
14172;DHT22;7165;52.388;4.928;2023-05-07T03:05:54;14.80;99.90
14172;DHT22;7165;52.388;4.928;2023-05-07T03:08:21;14.80;99.90
14172;DHT22;7165;52.388;4.928;2023-05-07T03:10:47;14.80;99.90
14172;DHT22;7165;52.388;4.928;2023-05-07T03:13:14;14.80;99.90
14172;DHT22;7165;52.388;4.928;2023-05-07T03:15:41;14.80;99.90
14172;DHT22;7165;52.388;4.928;2023-05-07T03:18:07;14.80;99.90
14172;DHT22;7165;52.388;4.928;2023-05-07T03:20:34;14.80;99.90
14172;DHT22;7165;52.388;4.928;2023-05-07T03:23:02;14.80;99.90
14172;DHT22;7165;52.388;4.928;2023-05-07T03:25:29;14.80;99.90
14172;DHT22;7165;52.388;4.928;2023-05-07T03:27:56;14.80;99.90
14172;DHT22;7165;52.388;4.928;2023-05-07T03:30:22;14.80;99.90
14172;DHT22;7165;52.388;4.928;2023-05-07T03:32:49;14.80;99.90
14172;DHT22;7165;52.388;4.928;2023-05-07T03:35:17;14.80;99.90
14172;DHT22;7165;52.388;4.928;2023-05-07T03:37:44;14.80;99.90
14172;DHT22;7165;52.388;4.928;2023-05-07T03:40:12;14.70;99.90
14172;DHT22;7165;52.388;4.928;2023-05-07T03:42:39;14.70;99.90
14172;DHT22;7165;52.388;4.928;2023-05-07T03:45:06;14.70;99.90
14172;DHT22;7165;52.388;4.928;2023-05-07T03:47:32;14.70;99.90
14172;DHT22;7165;52.388;4.928;2023-05-07T03:49:59;14.70;99.90
14172;DHT22;7165;52.388;4.928;2023-05-07T03:52:25;14.70;99.90
14172;DHT22;7165;52.388;4.928;2023-05-07T03:54:52;14.70;99.90
14172;DHT22;7165;52.388;4.928;2023-05-07T03:57:20;14.70;99.90
14172;DHT22;7165;52.388;4.928;2023-05-07T03:59:47;14.70;99.90
14172;DHT22;7165;52.388;4.928;2023-05-07T04:02:13;14.70;99.90
14172;DHT22;7165;52.388;4.928;2023-05-07T04:04:40;14.70;99.90
14172;DHT22;7165;52.388;4.928;2023-05-07T04:07:06;14.70;99.90
14172;DHT22;7165;52.388;4.928;2023-05-07T04:09:33;14.70;99.90
14172;DHT22;7165;52.388;4.928;2023-05-07T04:11:59;14.70;99.90
14172;DHT22;7165;52.388;4.928;2023-05-07T04:14:27;14.70;99.90
14172;DHT22;7165;52.388;4.928;2023-05-07T04:16:55;14.80;99.90
14172;DHT22;7165;52.388;4.928;2023-05-07T04:19:22;14.80;99.90
14172;DHT22;7165;52.388;4.928;2023-05-07T04:21:48;14.80;99.90
14172;DHT22;7165;52.388;4.928;2023-05-07T04:24:15;14.80;99.90
14172;DHT22;7165;52.388;4.928;2023-05-07T04:26:41;14.80;99.90
14172;DHT22;7165;52.388;4.928;2023-05-07T04:29:08;14.90;99.90
14172;DHT22;7165;52.388;4.928;2023-05-07T04:31:36;14.90;99.90
14172;DHT22;7165;52.388;4.928;2023-05-07T04:34:02;14.90;99.90
14172;DHT22;7165;52.388;4.928;2023-05-07T04:36:29;14.90;99.90
14172;DHT22;7165;52.388;4.928;2023-05-07T04:38:58;14.80;99.90
14172;DHT22;7165;52.388;4.928;2023-05-07T04:41:24;14.80;99.90
14172;DHT22;7165;52.388;4.928;2023-05-07T04:43:51;14.80;99.90
14172;DHT22;7165;52.388;4.928;2023-05-07T04:46:18;14.80;99.90
14172;DHT22;7165;52.388;4.928;2023-05-07T04:48:46;14.80;99.90
14172;DHT22;7165;52.388;4.928;2023-05-07T04:51:12;14.80;99.90
14172;DHT22;7165;52.388;4.928;2023-05-07T04:53:39;14.80;99.90
14172;DHT22;7165;52.388;4.928;2023-05-07T04:56:06;14.70;99.90
14172;DHT22;7165;52.388;4.928;2023-05-07T04:58:32;14.70;99.90
14172;DHT22;7165;52.388;4.928;2023-05-07T05:00:59;14.80;99.90
14172;DHT22;7165;52.388;4.928;2023-05-07T05:03:26;14.80;99.90
14172;DHT22;7165;52.388;4.928;2023-05-07T05:05:53;14.80;99.90
14172;DHT22;7165;52.388;4.928;2023-05-07T05:08:20;14.80;99.90
14172;DHT22;7165;52.388;4.928;2023-05-07T05:10:47;14.80;99.90
14172;DHT22;7165;52.388;4.928;2023-05-07T05:13:15;14.80;99.90
14172;DHT22;7165;52.388;4.928;2023-05-07T05:15:41;14.80;99.90
14172;DHT22;7165;52.388;4.928;2023-05-07T05:18:08;14.80;99.90
14172;DHT22;7165;52.388;4.928;2023-05-07T05:20:34;14.80;99.90
14172;DHT22;7165;52.388;4.928;2023-05-07T05:23:02;14.80;99.90
14172;DHT22;7165;52.388;4.928;2023-05-07T05:25:29;14.80;99.90
14172;DHT22;7165;52.388;4.928;2023-05-07T05:27:55;14.80;99.90
14172;DHT22;7165;52.388;4.928;2023-05-07T05:30:22;14.90;99.90
14172;DHT22;7165;52.388;4.928;2023-05-07T05:32:48;14.90;99.90
14172;DHT22;7165;52.388;4.928;2023-05-07T05:35:15;14.90;99.90
14172;DHT22;7165;52.388;4.928;2023-05-07T05:37:42;14.90;99.90
14172;DHT22;7165;52.388;4.928;2023-05-07T05:40:10;15.00;99.90
14172;DHT22;7165;52.388;4.928;2023-05-07T05:42:37;15.00;99.90
14172;DHT22;7165;52.388;4.928;2023-05-07T05:45:04;15.00;99.90
14172;DHT22;7165;52.388;4.928;2023-05-07T05:47:30;15.10;99.90
14172;DHT22;7165;52.388;4.928;2023-05-07T05:49:57;15.10;99.90
14172;DHT22;7165;52.388;4.928;2023-05-07T05:52:23;15.20;99.90
14172;DHT22;7165;52.388;4.928;2023-05-07T05:54:50;15.20;99.90
14172;DHT22;7165;52.388;4.928;2023-05-07T05:57:18;15.30;99.90
14172;DHT22;7165;52.388;4.928;2023-05-07T05:59:44;15.40;99.90
14172;DHT22;7165;52.388;4.928;2023-05-07T06:02:12;15.40;99.90
14172;DHT22;7165;52.388;4.928;2023-05-07T06:04:39;15.50;99.90
14172;DHT22;7165;52.388;4.928;2023-05-07T06:07:05;15.50;99.90
14172;DHT22;7165;52.388;4.928;2023-05-07T06:09:32;15.60;99.90
14172;DHT22;7165;52.388;4.928;2023-05-07T06:11:58;15.60;99.90
14172;DHT22;7165;52.388;4.928;2023-05-07T06:14:26;15.80;99.90
14172;DHT22;7165;52.388;4.928;2023-05-07T06:16:53;15.80;99.90
14172;DHT22;7165;52.388;4.928;2023-05-07T06:19:19;15.80;99.90
14172;DHT22;7165;52.388;4.928;2023-05-07T06:21:49;15.90;99.90
14172;DHT22;7165;52.388;4.928;2023-05-07T06:24:15;16.00;99.90
14172;DHT22;7165;52.388;4.928;2023-05-07T06:26:42;16.00;99.90
14172;DHT22;7165;52.388;4.928;2023-05-07T06:29:08;16.00;99.90
14172;DHT22;7165;52.388;4.928;2023-05-07T06:31:36;16.00;99.90
14172;DHT22;7165;52.388;4.928;2023-05-07T06:34:03;16.00;99.90
14172;DHT22;7165;52.388;4.928;2023-05-07T06:36:30;16.00;99.90
14172;DHT22;7165;52.388;4.928;2023-05-07T06:38:56;16.10;99.90
14172;DHT22;7165;52.388;4.928;2023-05-07T06:41:23;16.10;99.90
14172;DHT22;7165;52.388;4.928;2023-05-07T06:43:51;16.20;99.90
14172;DHT22;7165;52.388;4.928;2023-05-07T06:46:17;16.30;99.90
14172;DHT22;7165;52.388;4.928;2023-05-07T06:48:45;16.40;99.90
14172;DHT22;7165;52.388;4.928;2023-05-07T06:51:12;16.40;99.90
14172;DHT22;7165;52.388;4.928;2023-05-07T06:53:38;16.50;99.90
14172;DHT22;7165;52.388;4.928;2023-05-07T06:56:05;16.50;99.90
14172;DHT22;7165;52.388;4.928;2023-05-07T06:58:32;16.60;99.90
14172;DHT22;7165;52.388;4.928;2023-05-07T07:00:59;16.70;99.90
14172;DHT22;7165;52.388;4.928;2023-05-07T07:03:25;16.90;99.90
14172;DHT22;7165;52.388;4.928;2023-05-07T07:05:54;17.00;99.90
14172;DHT22;7165;52.388;4.928;2023-05-07T07:08:22;17.10;99.90
14172;DHT22;7165;52.388;4.928;2023-05-07T07:10:48;17.10;99.90
14172;DHT22;7165;52.388;4.928;2023-05-07T07:13:15;17.20;99.90
14172;DHT22;7165;52.388;4.928;2023-05-07T07:15:42;17.10;99.90
14172;DHT22;7165;52.388;4.928;2023-05-07T07:18:08;17.10;99.90
14172;DHT22;7165;52.388;4.928;2023-05-07T07:20:35;17.10;99.90
14172;DHT22;7165;52.388;4.928;2023-05-07T07:23:03;17.10;99.90
14172;DHT22;7165;52.388;4.928;2023-05-07T07:25:29;17.20;99.90
14172;DHT22;7165;52.388;4.928;2023-05-07T07:27:56;17.20;99.90
14172;DHT22;7165;52.388;4.928;2023-05-07T07:30:22;17.30;99.90
14172;DHT22;7165;52.388;4.928;2023-05-07T07:32:49;17.30;99.90
14172;DHT22;7165;52.388;4.928;2023-05-07T07:35:17;17.30;99.90
14172;DHT22;7165;52.388;4.928;2023-05-07T07:37:43;17.30;99.90
14172;DHT22;7165;52.388;4.928;2023-05-07T07:40:12;17.40;99.90
14172;DHT22;7165;52.388;4.928;2023-05-07T07:42:38;17.40;99.90
14172;DHT22;7165;52.388;4.928;2023-05-07T07:45:05;17.50;99.90
14172;DHT22;7165;52.388;4.928;2023-05-07T07:47:32;17.50;99.90
14172;DHT22;7165;52.388;4.928;2023-05-07T07:50:00;17.50;99.90
14172;DHT22;7165;52.388;4.928;2023-05-07T07:52:26;17.50;99.90
14172;DHT22;7165;52.388;4.928;2023-05-07T07:54:53;17.60;99.90
14172;DHT22;7165;52.388;4.928;2023-05-07T07:57:21;17.70;99.90
14172;DHT22;7165;52.388;4.928;2023-05-07T07:59:47;17.70;99.90
14172;DHT22;7165;52.388;4.928;2023-05-07T08:02:14;17.70;99.90
14172;DHT22;7165;52.388;4.928;2023-05-07T08:04:41;17.70;99.90
14172;DHT22;7165;52.388;4.928;2023-05-07T08:07:08;17.70;99.90
14172;DHT22;7165;52.388;4.928;2023-05-07T08:09:35;17.60;99.90
14172;DHT22;7165;52.388;4.928;2023-05-07T08:12:02;17.60;99.90
14172;DHT22;7165;52.388;4.928;2023-05-07T08:14:30;17.70;99.90
14172;DHT22;7165;52.388;4.928;2023-05-07T08:16:57;18.00;99.90
14172;DHT22;7165;52.388;4.928;2023-05-07T08:19:24;18.30;99.90
14172;DHT22;7165;52.388;4.928;2023-05-07T08:21:51;18.50;99.90
14172;DHT22;7165;52.388;4.928;2023-05-07T08:24:17;18.70;99.90
14172;DHT22;7165;52.388;4.928;2023-05-07T08:26:44;18.90;99.90
14172;DHT22;7165;52.388;4.928;2023-05-07T08:29:10;19.00;99.90
14172;DHT22;7165;52.388;4.928;2023-05-07T08:31:38;19.20;99.90
14172;DHT22;7165;52.388;4.928;2023-05-07T08:34:05;19.20;99.90
14172;DHT22;7165;52.388;4.928;2023-05-07T08:36:32;19.30;99.90
14172;DHT22;7165;52.388;4.928;2023-05-07T08:38:59;19.30;99.90
14172;DHT22;7165;52.388;4.928;2023-05-07T08:41:26;19.30;99.90
14172;DHT22;7165;52.388;4.928;2023-05-07T08:43:52;19.30;99.90
14172;DHT22;7165;52.388;4.928;2023-05-07T08:46:20;19.40;99.90
14172;DHT22;7165;52.388;4.928;2023-05-07T08:48:49;19.50;99.90
14172;DHT22;7165;52.388;4.928;2023-05-07T08:51:16;19.60;99.90
14172;DHT22;7165;52.388;4.928;2023-05-07T08:53:42;19.70;99.90
14172;DHT22;7165;52.388;4.928;2023-05-07T08:56:09;19.90;99.90
14172;DHT22;7165;52.388;4.928;2023-05-07T08:58:36;20.20;99.90
14172;DHT22;7165;52.388;4.928;2023-05-07T09:01:03;20.40;99.90
14172;DHT22;7165;52.388;4.928;2023-05-07T09:03:33;20.50;99.90
14172;DHT22;7165;52.388;4.928;2023-05-07T09:06:01;20.50;99.90
14172;DHT22;7165;52.388;4.928;2023-05-07T09:08:27;20.40;99.90
14172;DHT22;7165;52.388;4.928;2023-05-07T09:10:54;20.40;99.90
14172;DHT22;7165;52.388;4.928;2023-05-07T09:13:20;20.50;99.90
14172;DHT22;7165;52.388;4.928;2023-05-07T09:15:47;20.60;99.90
14172;DHT22;7165;52.388;4.928;2023-05-07T09:18:14;20.70;99.90
14172;DHT22;7165;52.388;4.928;2023-05-07T09:20:40;20.80;99.90
14172;DHT22;7165;52.388;4.928;2023-05-07T09:23:08;20.90;99.90
14172;DHT22;7165;52.388;4.928;2023-05-07T09:25:36;20.80;99.90
14172;DHT22;7165;52.388;4.928;2023-05-07T09:28:03;20.90;99.90
14172;DHT22;7165;52.388;4.928;2023-05-07T09:30:31;21.00;99.90
14172;DHT22;7165;52.388;4.928;2023-05-07T09:32:58;21.00;99.90
14172;DHT22;7165;52.388;4.928;2023-05-07T09:35:25;21.20;99.90
14172;DHT22;7165;52.388;4.928;2023-05-07T09:37:52;21.30;99.90
14172;DHT22;7165;52.388;4.928;2023-05-07T09:40:22;21.20;99.90
14172;DHT22;7165;52.388;4.928;2023-05-07T09:42:49;21.10;99.90
14172;DHT22;7165;52.388;4.928;2023-05-07T09:45:15;21.10;99.90
14172;DHT22;7165;52.388;4.928;2023-05-07T09:47:42;21.20;99.90
14172;DHT22;7165;52.388;4.928;2023-05-07T09:50:10;21.30;99.90
14172;DHT22;7165;52.388;4.928;2023-05-07T09:52:38;21.40;99.90
14172;DHT22;7165;52.388;4.928;2023-05-07T09:55:06;21.30;99.90
14172;DHT22;7165;52.388;4.928;2023-05-07T09:57:35;21.20;99.90
14172;DHT22;7165;52.388;4.928;2023-05-07T10:00:02;21.10;99.90
14172;DHT22;7165;52.388;4.928;2023-05-07T10:02:30;21.00;99.90
14172;DHT22;7165;52.388;4.928;2023-05-07T10:04:58;21.10;99.90
14172;DHT22;7165;52.388;4.928;2023-05-07T10:07:25;21.20;99.90
14172;DHT22;7165;52.388;4.928;2023-05-07T10:09:52;21.20;99.90
14172;DHT22;7165;52.388;4.928;2023-05-07T10:12:19;21.40;99.90
14172;DHT22;7165;52.388;4.928;2023-05-07T10:14:47;21.70;99.90
14172;DHT22;7165;52.388;4.928;2023-05-07T10:17:15;22.00;99.90
14172;DHT22;7165;52.388;4.928;2023-05-07T10:19:42;22.20;99.90
14172;DHT22;7165;52.388;4.928;2023-05-07T10:22:10;22.20;99.90
14172;DHT22;7165;52.388;4.928;2023-05-07T10:24:37;22.30;99.90
14172;DHT22;7165;52.388;4.928;2023-05-07T10:27:04;22.50;99.90
14172;DHT22;7165;52.388;4.928;2023-05-07T10:29:33;22.20;99.90
14172;DHT22;7165;52.388;4.928;2023-05-07T10:32:08;22.00;99.90
14172;DHT22;7165;52.388;4.928;2023-05-07T10:34:39;22.00;99.90
14172;DHT22;7165;52.388;4.928;2023-05-07T10:37:06;22.30;99.90
14172;DHT22;7165;52.388;4.928;2023-05-07T10:39:34;22.50;99.90
14172;DHT22;7165;52.388;4.928;2023-05-07T10:42:09;22.70;99.90
14172;DHT22;7165;52.388;4.928;2023-05-07T10:44:36;23.00;99.90
14172;DHT22;7165;52.388;4.928;2023-05-07T10:47:04;23.30;99.90
14172;DHT22;7165;52.388;4.928;2023-05-07T10:49:32;23.60;99.90
14172;DHT22;7165;52.388;4.928;2023-05-07T10:52:11;23.80;99.90
14172;DHT22;7165;52.388;4.928;2023-05-07T10:54:38;23.80;99.90
14172;DHT22;7165;52.388;4.928;2023-05-07T10:59:46;23.90;99.90
14172;DHT22;7165;52.388;4.928;2023-05-07T11:02:12;23.80;99.90
14172;DHT22;7165;52.388;4.928;2023-05-07T11:04:41;23.70;99.90
14172;DHT22;7165;52.388;4.928;2023-05-07T11:10:02;23.70;99.90
14172;DHT22;7165;52.388;4.928;2023-05-07T11:12:48;23.80;99.90
14172;DHT22;7165;52.388;4.928;2023-05-07T11:15:16;23.70;99.90
14172;DHT22;7165;52.388;4.928;2023-05-07T11:17:59;23.60;99.90
14172;DHT22;7165;52.388;4.928;2023-05-07T11:23:12;23.70;99.90
14172;DHT22;7165;52.388;4.928;2023-05-07T11:25:58;23.60;99.90
14172;DHT22;7165;52.388;4.928;2023-05-07T11:28:25;23.80;99.90
14172;DHT22;7165;52.388;4.928;2023-05-07T11:30:52;24.00;99.90
14172;DHT22;7165;52.388;4.928;2023-05-07T11:33:19;24.10;99.90
14172;DHT22;7165;52.388;4.928;2023-05-07T11:35:45;24.30;99.90
14172;DHT22;7165;52.388;4.928;2023-05-07T11:38:13;24.20;99.90
14172;DHT22;7165;52.388;4.928;2023-05-07T11:40:48;24.00;99.90
14172;DHT22;7165;52.388;4.928;2023-05-07T11:43:15;23.70;99.90
14172;DHT22;7165;52.388;4.928;2023-05-07T11:45:41;23.40;99.90
14172;DHT22;7165;52.388;4.928;2023-05-07T11:48:08;23.20;99.90
14172;DHT22;7165;52.388;4.928;2023-05-07T11:50:34;23.00;99.90
14172;DHT22;7165;52.388;4.928;2023-05-07T11:53:06;22.90;99.90
14172;DHT22;7165;52.388;4.928;2023-05-07T11:55:34;22.80;99.90
14172;DHT22;7165;52.388;4.928;2023-05-07T11:58:01;22.60;99.90
14172;DHT22;7165;52.388;4.928;2023-05-07T12:00:27;22.50;99.90
14172;DHT22;7165;52.388;4.928;2023-05-07T12:02:54;22.50;99.90
14172;DHT22;7165;52.388;4.928;2023-05-07T12:05:20;22.40;99.90
14172;DHT22;7165;52.388;4.928;2023-05-07T12:07:47;22.20;99.90
14172;DHT22;7165;52.388;4.928;2023-05-07T12:10:14;22.20;99.90
14172;DHT22;7165;52.388;4.928;2023-05-07T12:12:45;22.20;99.90
14172;DHT22;7165;52.388;4.928;2023-05-07T12:15:15;22.20;99.90
14172;DHT22;7165;52.388;4.928;2023-05-07T12:17:41;22.20;99.90
14172;DHT22;7165;52.388;4.928;2023-05-07T12:20:08;22.20;99.90
14172;DHT22;7165;52.388;4.928;2023-05-07T12:22:35;22.10;99.90
14172;DHT22;7165;52.388;4.928;2023-05-07T12:25:02;22.10;99.90
14172;DHT22;7165;52.388;4.928;2023-05-07T12:27:28;22.10;99.90
14172;DHT22;7165;52.388;4.928;2023-05-07T12:29:57;22.10;99.90
14172;DHT22;7165;52.388;4.928;2023-05-07T12:32:23;22.00;99.90
14172;DHT22;7165;52.388;4.928;2023-05-07T12:34:50;22.00;99.90
14172;DHT22;7165;52.388;4.928;2023-05-07T12:37:22;21.90;99.90
14172;DHT22;7165;52.388;4.928;2023-05-07T12:39:49;21.80;99.90
14172;DHT22;7165;52.388;4.928;2023-05-07T12:42:16;21.70;99.90
14172;DHT22;7165;52.388;4.928;2023-05-07T12:44:48;21.60;99.90
14172;DHT22;7165;52.388;4.928;2023-05-07T12:47:16;21.60;99.90
14172;DHT22;7165;52.388;4.928;2023-05-07T12:49:43;21.60;99.90
14172;DHT22;7165;52.388;4.928;2023-05-07T12:52:11;21.70;99.90
14172;DHT22;7165;52.388;4.928;2023-05-07T12:54:37;21.60;99.90
14172;DHT22;7165;52.388;4.928;2023-05-07T12:57:05;21.70;99.90
14172;DHT22;7165;52.388;4.928;2023-05-07T12:59:32;21.90;99.90
14172;DHT22;7165;52.388;4.928;2023-05-07T13:01:59;22.00;99.90
14172;DHT22;7165;52.388;4.928;2023-05-07T13:04:27;22.20;99.90
14172;DHT22;7165;52.388;4.928;2023-05-07T13:06:53;22.20;99.90
14172;DHT22;7165;52.388;4.928;2023-05-07T13:09:20;22.30;99.90
14172;DHT22;7165;52.388;4.928;2023-05-07T13:11:46;22.20;99.90
14172;DHT22;7165;52.388;4.928;2023-05-07T13:14:13;22.20;99.90
14172;DHT22;7165;52.388;4.928;2023-05-07T13:16:39;22.10;99.90
14172;DHT22;7165;52.388;4.928;2023-05-07T13:19:06;22.10;99.90
14172;DHT22;7165;52.388;4.928;2023-05-07T13:21:34;22.10;99.90
14172;DHT22;7165;52.388;4.928;2023-05-07T13:24:00;22.10;99.90
14172;DHT22;7165;52.388;4.928;2023-05-07T13:26:27;22.10;99.90
14172;DHT22;7165;52.388;4.928;2023-05-07T13:28:53;22.10;99.90
14172;DHT22;7165;52.388;4.928;2023-05-07T13:31:20;22.10;99.90
14172;DHT22;7165;52.388;4.928;2023-05-07T13:33:47;22.00;99.90
14172;DHT22;7165;52.388;4.928;2023-05-07T13:36:14;22.00;99.90
14172;DHT22;7165;52.388;4.928;2023-05-07T13:38:42;21.80;99.90
14172;DHT22;7165;52.388;4.928;2023-05-07T13:41:08;21.70;99.90
14172;DHT22;7165;52.388;4.928;2023-05-07T13:43:35;21.50;99.90
14172;DHT22;7165;52.388;4.928;2023-05-07T13:46:01;21.40;99.90
14172;DHT22;7165;52.388;4.928;2023-05-07T13:48:28;21.20;99.90
14172;DHT22;7165;52.388;4.928;2023-05-07T13:50:55;21.00;99.90
14172;DHT22;7165;52.388;4.928;2023-05-07T13:53:21;20.90;99.90
14172;DHT22;7165;52.388;4.928;2023-05-07T13:55:49;20.70;99.90
14172;DHT22;7165;52.388;4.928;2023-05-07T13:58:16;20.40;99.90
14172;DHT22;7165;52.388;4.928;2023-05-07T14:00:42;20.30;99.90
14172;DHT22;7165;52.388;4.928;2023-05-07T14:03:09;20.00;99.90
14172;DHT22;7165;52.388;4.928;2023-05-07T14:05:35;19.70;99.90
14172;DHT22;7165;52.388;4.928;2023-05-07T14:08:02;19.40;99.90
14172;DHT22;7165;52.388;4.928;2023-05-07T14:10:30;19.00;99.90
14172;DHT22;7165;52.388;4.928;2023-05-07T14:13:01;18.80;99.90
14172;DHT22;7165;52.388;4.928;2023-05-07T14:15:27;18.60;99.90
14172;DHT22;7165;52.388;4.928;2023-05-07T14:17:54;18.40;99.90
14172;DHT22;7165;52.388;4.928;2023-05-07T14:20:20;18.20;99.90
14172;DHT22;7165;52.388;4.928;2023-05-07T14:22:47;18.10;99.90
14172;DHT22;7165;52.388;4.928;2023-05-07T14:25:13;17.90;99.90
14172;DHT22;7165;52.388;4.928;2023-05-07T14:27:40;17.80;99.90
14172;DHT22;7165;52.388;4.928;2023-05-07T14:30:08;17.70;99.90
14172;DHT22;7165;52.388;4.928;2023-05-07T14:32:35;17.60;99.90
14172;DHT22;7165;52.388;4.928;2023-05-07T14:35:02;17.50;99.90
14172;DHT22;7165;52.388;4.928;2023-05-07T14:37:28;17.30;99.90
14172;DHT22;7165;52.388;4.928;2023-05-07T14:39:55;17.30;99.90
14172;DHT22;7165;52.388;4.928;2023-05-07T14:42:21;17.30;99.90
14172;DHT22;7165;52.388;4.928;2023-05-07T14:44:48;17.20;99.90
14172;DHT22;7165;52.388;4.928;2023-05-07T14:47:16;17.20;99.90
14172;DHT22;7165;52.388;4.928;2023-05-07T14:49:42;17.10;99.90
14172;DHT22;7165;52.388;4.928;2023-05-07T14:52:09;17.20;99.90
14172;DHT22;7165;52.388;4.928;2023-05-07T14:54:36;17.20;99.90
14172;DHT22;7165;52.388;4.928;2023-05-07T14:57:04;17.20;99.90
14172;DHT22;7165;52.388;4.928;2023-05-07T14:59:30;17.10;99.90
14172;DHT22;7165;52.388;4.928;2023-05-07T15:01:57;17.10;99.90
14172;DHT22;7165;52.388;4.928;2023-05-07T15:04:26;17.20;99.90
14172;DHT22;7165;52.388;4.928;2023-05-07T15:06:52;17.20;99.90
14172;DHT22;7165;52.388;4.928;2023-05-07T15:09:21;17.30;99.90
14172;DHT22;7165;52.388;4.928;2023-05-07T15:11:47;17.30;99.90
14172;DHT22;7165;52.388;4.928;2023-05-07T15:14:14;17.40;99.90
14172;DHT22;7165;52.388;4.928;2023-05-07T15:16:41;17.50;99.90
14172;DHT22;7165;52.388;4.928;2023-05-07T15:19:07;17.50;99.90
14172;DHT22;7165;52.388;4.928;2023-05-07T15:21:36;17.60;99.90
14172;DHT22;7165;52.388;4.928;2023-05-07T15:24:02;17.70;99.90
14172;DHT22;7165;52.388;4.928;2023-05-07T15:26:29;17.70;99.90
14172;DHT22;7165;52.388;4.928;2023-05-07T15:28:55;17.70;99.90
14172;DHT22;7165;52.388;4.928;2023-05-07T15:31:22;17.80;99.90
14172;DHT22;7165;52.388;4.928;2023-05-07T15:33:49;17.80;99.90
14172;DHT22;7165;52.388;4.928;2023-05-07T15:36:17;17.80;99.90
14172;DHT22;7165;52.388;4.928;2023-05-07T15:38:45;17.90;99.90
14172;DHT22;7165;52.388;4.928;2023-05-07T15:41:11;18.00;99.90
14172;DHT22;7165;52.388;4.928;2023-05-07T15:43:38;18.10;99.90
14172;DHT22;7165;52.388;4.928;2023-05-07T15:46:09;18.20;99.90
14172;DHT22;7165;52.388;4.928;2023-05-07T15:48:35;18.30;99.90
14172;DHT22;7165;52.388;4.928;2023-05-07T15:51:02;18.40;99.90
14172;DHT22;7165;52.388;4.928;2023-05-07T15:53:29;18.50;99.90